createdAt,value
2022-10-12T00:00:29.383Z,83.82
2022-10-12T00:02:56.812Z,83.60
2022-10-12T00:05:24.174Z,83.23
2022-10-12T00:07:51.525Z,83.33
2022-10-12T00:10:19.042Z,83.36
2022-10-12T00:12:46.380Z,83.04
2022-10-12T00:15:13.734Z,82.99
2022-10-12T00:17:41.119Z,82.79
2022-10-12T00:20:08.761Z,82.33
2022-10-12T00:22:36.065Z,82.57
2022-10-12T00:25:03.668Z,82.79
2022-10-12T00:27:31.045Z,83.53
2022-10-12T00:29:58.408Z,83.70
2022-10-12T00:32:25.757Z,83.38
2022-10-12T00:34:53.220Z,83.90
2022-10-12T00:37:20.535Z,84.04
2022-10-12T00:39:48.676Z,83.48
2022-10-12T00:42:18.994Z,83.62
2022-10-12T00:44:48.735Z,83.09
2022-10-12T00:47:38.469Z,82.57
2022-10-12T00:50:18.786Z,82.98
2022-10-12T00:53:01.363Z,83.18
2022-10-12T00:55:36.472Z,83.50
2022-10-12T00:58:06.513Z,84.05
2022-10-12T01:00:35.411Z,84.42
2022-10-12T01:03:04.903Z,84.04
2022-10-12T01:05:33.087Z,84.30
2022-10-12T01:08:02.592Z,84.90
2022-10-12T01:10:29.949Z,84.68
2022-10-12T01:12:57.471Z,84.86
2022-10-12T01:15:31.418Z,84.86
2022-10-12T01:18:45.511Z,84.56
2022-10-12T01:21:21.251Z,85.20
2022-10-12T01:24:13.062Z,85.87
2022-10-12T01:26:43.213Z,85.60
2022-10-12T01:29:22.349Z,85.55
2022-10-12T01:31:57.693Z,86.60
2022-10-12T01:34:25.006Z,87.10
2022-10-12T01:37:05.235Z,86.35
2022-10-12T01:39:43.038Z,86.66
2022-10-12T01:42:17.877Z,86.71
2022-10-12T01:44:45.259Z,85.86
2022-10-12T01:47:14.002Z,84.77
2022-10-12T01:49:41.597Z,84.22
2022-10-12T01:52:21.135Z,85.50
2022-10-12T01:54:51.497Z,85.95
2022-10-12T01:57:38.454Z,86.13
2022-10-12T02:00:15.202Z,85.88
2022-10-12T02:03:00.517Z,87.54
2022-10-12T02:05:34.646Z,87.42
2022-10-12T02:08:09.242Z,87.12
2022-10-12T02:10:58.519Z,87.31
2022-10-12T02:13:30.263Z,87.05
2022-10-12T02:16:01.667Z,87.18
2022-10-12T02:18:29.413Z,87.08
2022-10-12T02:20:59.916Z,86.91
2022-10-12T02:23:28.732Z,86.79
2022-10-12T02:26:00.604Z,86.53
2022-10-12T02:28:30.544Z,86.52
2022-10-12T02:31:35.706Z,86.67
2022-10-12T02:34:11.102Z,86.05
2022-10-12T02:36:50.677Z,86.03
2022-10-12T02:39:23.992Z,85.91
2022-10-12T02:41:57.625Z,87.45
2022-10-12T02:44:33.357Z,87.12
2022-10-12T02:47:04.419Z,86.57
2022-10-12T02:49:33.047Z,86.62
2022-10-12T02:52:01.966Z,86.29
2022-10-12T02:54:30.099Z,86.86
2022-10-12T02:56:57.450Z,86.99
2022-10-12T02:59:24.955Z,86.50
2022-10-12T03:01:52.328Z,86.97
2022-10-12T03:04:20.044Z,86.11
2022-10-12T03:06:47.429Z,86.40
2022-10-12T03:09:14.728Z,86.55
2022-10-12T03:11:44.898Z,86.40
2022-10-12T03:14:13.591Z,87.25
2022-10-12T03:16:41.385Z,86.64
2022-10-12T03:19:09.028Z,85.49
2022-10-12T03:21:36.390Z,86.32
2022-10-12T03:24:03.710Z,85.53
2022-10-12T03:26:31.071Z,85.50
2022-10-12T03:28:58.594Z,84.88
2022-10-12T03:31:25.944Z,84.13
2022-10-12T03:33:53.358Z,85.11
2022-10-12T03:36:20.771Z,85.49
2022-10-12T03:38:48.339Z,85.40
2022-10-12T03:41:15.688Z,85.87
2022-10-12T03:43:43.049Z,86.05
2022-10-12T03:46:10.364Z,85.99
2022-10-12T03:48:37.788Z,86.69
2022-10-12T03:51:05.261Z,86.39
2022-10-12T03:53:32.794Z,87.00
2022-10-12T03:56:00.222Z,86.15
2022-10-12T03:58:27.532Z,86.52
2022-10-12T04:00:55.375Z,86.77
2022-10-12T04:03:22.788Z,86.63
2022-10-12T04:05:57.910Z,86.56
2022-10-12T04:08:26.792Z,86.27
2022-10-12T04:10:54.639Z,86.62
2022-10-12T04:13:22.044Z,86.55
2022-10-12T04:15:49.611Z,85.39
2022-10-12T04:18:16.910Z,86.20
2022-10-12T04:20:47.615Z,86.72
2022-10-12T04:23:14.962Z,86.29
2022-10-12T04:25:42.342Z,86.12
2022-10-12T04:28:09.663Z,85.92
2022-10-12T04:30:37.120Z,85.82
2022-10-12T04:33:05.322Z,86.44
2022-10-12T04:35:32.782Z,86.80
2022-10-12T04:38:00.166Z,86.68
2022-10-12T04:40:27.513Z,86.73
2022-10-12T04:42:56.147Z,87.20
2022-10-12T04:45:23.659Z,86.17
2022-10-12T04:47:51.063Z,86.22
2022-10-12T04:50:18.451Z,86.51
2022-10-12T04:52:45.823Z,86.06
2022-10-12T04:55:13.620Z,86.67
2022-10-12T04:57:41.281Z,86.63
2022-10-12T05:00:10.668Z,86.99
2022-10-12T05:02:37.953Z,87.09
2022-10-12T05:05:05.651Z,86.94
2022-10-12T05:07:33.019Z,87.23
2022-10-12T05:10:00.580Z,87.32
2022-10-12T05:12:27.898Z,86.71
2022-10-12T05:14:55.392Z,86.89
2022-10-12T05:17:22.712Z,87.04
2022-10-12T05:19:53.050Z,86.55
2022-10-12T05:22:20.359Z,86.40
2022-10-12T05:24:51.389Z,86.48
2022-10-12T05:27:21.182Z,86.01
2022-10-12T05:29:48.727Z,86.81
2022-10-12T05:32:17.148Z,87.00
2022-10-12T05:34:44.732Z,86.34
2022-10-12T05:37:12.023Z,86.98
2022-10-12T05:39:40.682Z,86.68
2022-10-12T05:42:08.061Z,85.63
2022-10-12T05:44:35.622Z,86.00
2022-10-12T05:47:03.097Z,85.88
2022-10-12T05:49:31.027Z,85.94
2022-10-12T05:51:58.481Z,85.65
2022-10-12T05:54:26.068Z,86.07
2022-10-12T05:56:53.850Z,86.14
2022-10-12T05:59:21.950Z,86.06
2022-10-12T06:01:49.936Z,85.88
2022-10-12T06:04:17.454Z,85.48
2022-10-12T06:06:44.774Z,84.56
2022-10-12T06:09:12.981Z,83.01
2022-10-12T06:11:40.428Z,81.09
2022-10-12T06:14:07.883Z,80.55
2022-10-12T06:16:35.208Z,81.08
2022-10-12T06:19:02.454Z,81.08
2022-10-12T06:21:34.324Z,80.65
2022-10-12T06:24:02.201Z,78.87
2022-10-12T06:26:31.512Z,77.93
2022-10-12T06:29:00.809Z,76.62
2022-10-12T06:31:29.286Z,77.78
2022-10-12T06:33:56.660Z,77.94
2022-10-12T06:36:24.122Z,77.69
2022-10-12T06:38:51.587Z,77.85
2022-10-12T06:41:18.960Z,77.63
2022-10-12T06:43:46.321Z,77.96
2022-10-12T06:46:13.670Z,77.40
2022-10-12T06:48:41.165Z,77.83
2022-10-12T06:51:08.665Z,77.93
2022-10-12T06:53:36.691Z,77.08
2022-10-12T06:56:08.235Z,75.85
2022-10-12T06:58:35.938Z,75.32
2022-10-12T07:01:04.606Z,75.41
2022-10-12T07:03:32.567Z,75.86
2022-10-12T07:06:12.360Z,75.97
2022-10-12T07:08:41.408Z,76.71
2022-10-12T07:11:11.644Z,76.45
2022-10-12T07:13:39.839Z,75.33
2022-10-12T07:16:10.332Z,75.12
2022-10-12T07:18:39.259Z,75.66
2022-10-12T07:21:06.711Z,74.92
2022-10-12T07:23:34.912Z,74.41
2022-10-12T07:26:02.796Z,73.77
2022-10-12T07:28:30.227Z,73.74
2022-10-12T07:31:03.160Z,73.11
2022-10-12T07:33:34.685Z,72.54
2022-10-12T07:36:13.794Z,71.47
2022-10-12T07:38:45.318Z,68.50
2022-10-12T07:41:13.616Z,62.85
2022-10-12T07:43:41.319Z,58.04
2022-10-12T07:46:08.919Z,53.03
2022-10-12T07:48:36.429Z,50.82
2022-10-12T07:51:08.815Z,47.55
2022-10-12T07:53:38.117Z,45.51
2022-10-12T07:56:07.992Z,45.29
2022-10-12T07:58:35.337Z,45.53
2022-10-12T08:01:07.511Z,44.96
2022-10-12T08:03:35.112Z,45.50
2022-10-12T08:06:13.691Z,46.76
2022-10-12T08:08:42.700Z,46.48
2022-10-12T08:11:12.492Z,45.30
2022-10-12T08:13:41.178Z,43.00
2022-10-12T08:16:11.802Z,41.12
2022-10-12T08:18:39.451Z,38.63
2022-10-12T08:21:08.960Z,38.07
2022-10-12T08:23:37.162Z,38.34
2022-10-12T08:26:05.482Z,37.92
2022-10-12T08:28:34.336Z,37.44
2022-10-12T08:31:06.434Z,37.29
2022-10-12T08:33:35.165Z,39.33
2022-10-12T08:36:04.561Z,38.55
2022-10-12T08:38:35.078Z,37.62
2022-10-12T08:41:30.269Z,35.88
2022-10-12T08:44:27.294Z,36.01
2022-10-12T08:47:10.041Z,36.23
2022-10-12T08:49:40.239Z,35.84
2022-10-12T08:52:28.686Z,36.05
2022-10-12T08:55:00.754Z,36.56
2022-10-12T08:57:28.215Z,36.24
2022-10-12T08:59:55.613Z,34.95
2022-10-12T09:02:45.024Z,33.57
2022-10-12T09:05:21.713Z,31.76
2022-10-12T09:08:07.360Z,31.63
2022-10-12T09:10:49.814Z,32.47
2022-10-12T09:13:35.707Z,31.08
2022-10-12T09:16:23.096Z,31.24
2022-10-12T09:18:55.169Z,30.90
2022-10-12T09:21:25.442Z,30.93
2022-10-12T09:23:56.693Z,30.67
2022-10-12T09:26:29.801Z,30.79
2022-10-12T09:28:58.621Z,30.63
2022-10-12T09:31:38.640Z,30.66
2022-10-12T09:34:08.692Z,31.10
2022-10-12T09:36:38.711Z,32.27
2022-10-12T09:39:17.165Z,32.39
2022-10-12T09:41:46.809Z,33.15
2022-10-12T09:44:26.639Z,33.96
2022-10-12T09:46:58.577Z,34.95
2022-10-12T09:49:45.063Z,35.01
2022-10-12T09:52:15.248Z,34.42
2022-10-12T09:54:49.028Z,35.76
2022-10-12T09:57:30.531Z,32.50
2022-10-12T09:59:57.884Z,33.16
2022-10-12T10:02:26.774Z,34.82
2022-10-12T10:04:55.103Z,35.92
2022-10-12T10:07:28.330Z,36.25
2022-10-12T10:10:16.973Z,36.63
2022-10-12T10:12:53.525Z,36.73
2022-10-12T10:15:23.997Z,37.75
2022-10-12T10:17:54.718Z,37.78
2022-10-12T10:20:49.820Z,37.67
2022-10-12T10:23:25.888Z,37.98
2022-10-12T10:25:58.071Z,40.63
2022-10-12T10:28:30.059Z,39.43
2022-10-12T10:31:04.389Z,40.12
2022-10-12T10:33:34.059Z,40.01
2022-10-12T10:36:22.290Z,40.48
2022-10-12T10:39:05.413Z,42.65
2022-10-12T10:41:38.803Z,41.12
2022-10-12T10:44:27.162Z,41.74
2022-10-12T10:46:57.170Z,42.04
2022-10-12T10:49:59.273Z,42.30
2022-10-12T10:52:30.115Z,43.43
2022-10-12T10:55:20.631Z,42.85
2022-10-12T10:58:05.456Z,43.13
2022-10-12T11:00:40.085Z,43.19
2022-10-12T11:03:18.842Z,43.13
2022-10-12T11:05:54.683Z,44.42
2022-10-12T11:08:30.533Z,45.08
2022-10-12T11:11:02.510Z,43.71
2022-10-12T11:13:29.682Z,44.16
2022-10-12T11:16:09.082Z,44.14
2022-10-12T11:18:46.471Z,45.87
2022-10-12T11:21:26.734Z,45.63
2022-10-12T11:24:02.969Z,45.06
2022-10-12T11:26:43.585Z,44.80
2022-10-12T11:29:14.901Z,44.48
2022-10-12T11:31:49.230Z,44.30
2022-10-12T11:34:20.807Z,43.59
2022-10-12T11:37:17.702Z,44.04
2022-10-12T11:39:44.902Z,41.44
2022-10-12T11:42:21.699Z,41.14
2022-10-12T11:44:50.201Z,41.20
2022-10-12T11:47:29.988Z,42.03
2022-10-12T11:50:20.797Z,43.02
2022-10-12T11:52:54.830Z,41.53
2022-10-12T11:55:48.132Z,41.38
2022-10-12T11:58:42.225Z,41.54
2022-10-12T12:01:21.528Z,40.51
2022-10-12T12:04:48.582Z,39.90
2022-10-12T12:07:35.234Z,39.75
2022-10-12T12:10:25.576Z,40.13
2022-10-12T12:13:15.310Z,40.34
2022-10-12T12:15:49.918Z,39.75
2022-10-12T12:18:22.948Z,40.48
2022-10-12T12:21:06.105Z,39.82
2022-10-12T12:23:51.561Z,39.81
2022-10-12T12:26:21.608Z,40.04
2022-10-12T12:29:09.621Z,40.58
2022-10-12T12:31:37.762Z,41.10
2022-10-12T12:34:14.563Z,40.67
2022-10-12T12:36:46.353Z,40.61
2022-10-12T12:39:24.694Z,41.56
2022-10-12T12:42:06.855Z,41.52
2022-10-12T12:44:34.429Z,40.42
2022-10-12T12:47:26.033Z,40.56
2022-10-12T12:49:54.127Z,42.73
2022-10-12T12:52:34.325Z,41.60
2022-10-12T12:55:35.276Z,41.57
2022-10-12T12:58:08.494Z,42.63
2022-10-12T13:01:06.516Z,43.62
2022-10-12T13:03:47.962Z,43.83
2022-10-12T13:06:40.170Z,41.32
2022-10-12T13:09:26.690Z,41.79
2022-10-12T13:12:15.053Z,42.54
2022-10-12T13:15:00.933Z,41.82
2022-10-12T13:18:45.310Z,41.28
2022-10-12T13:21:15.945Z,42.24
2022-10-12T13:23:47.411Z,42.49
2022-10-12T13:26:21.498Z,41.87
2022-10-12T13:28:50.095Z,42.49
2022-10-12T13:31:34.714Z,42.61
2022-10-12T13:34:22.540Z,42.44
2022-10-12T13:37:03.814Z,41.74
2022-10-12T13:39:38.981Z,41.77
2022-10-12T13:42:06.847Z,42.67
2022-10-12T13:44:36.385Z,43.27
2022-10-12T13:47:24.355Z,43.10
2022-10-12T13:49:52.493Z,43.21
2022-10-12T13:52:32.555Z,43.41
2022-10-12T13:55:01.542Z,42.97
2022-10-12T13:57:39.183Z,42.59
2022-10-12T14:00:16.027Z,42.53
2022-10-12T14:03:06.395Z,42.30
2022-10-12T14:05:34.094Z,42.80
2022-10-12T14:08:14.162Z,42.89
2022-10-12T14:10:44.439Z,43.25
2022-10-12T14:13:15.775Z,42.98
2022-10-12T14:15:43.409Z,43.75
2022-10-12T14:18:38.168Z,43.16
2022-10-12T14:21:14.858Z,43.39
2022-10-12T14:24:09.620Z,44.43
2022-10-12T14:26:42.560Z,43.79
2022-10-12T14:29:31.428Z,44.13
2022-10-12T14:32:04.960Z,44.65
2022-10-12T14:34:38.910Z,44.17
2022-10-12T14:37:09.293Z,43.93
2022-10-12T14:39:36.863Z,44.13
2022-10-12T14:42:39.716Z,45.31
2022-10-12T14:45:24.558Z,44.44
2022-10-12T14:47:52.867Z,44.95
2022-10-12T14:50:23.948Z,45.66
2022-10-12T14:53:04.697Z,46.56
2022-10-12T14:55:34.062Z,46.54
2022-10-12T14:58:01.802Z,46.86
2022-10-12T15:00:33.413Z,46.37
2022-10-12T15:03:01.125Z,46.13
2022-10-12T15:05:31.842Z,46.39
2022-10-12T15:08:00.134Z,46.08
2022-10-12T15:10:28.495Z,46.21
2022-10-12T15:12:55.848Z,46.78
2022-10-12T15:15:28.987Z,44.39
2022-10-12T15:17:59.631Z,43.76
2022-10-12T15:20:30.793Z,43.92
2022-10-12T15:23:00.275Z,44.00
2022-10-12T15:25:49.693Z,46.02
2022-10-12T15:28:17.914Z,46.81
2022-10-12T15:31:04.550Z,48.05
2022-10-12T15:33:33.171Z,48.04
2022-10-12T15:36:01.123Z,47.06
2022-10-12T15:38:28.495Z,48.20
2022-10-12T15:40:58.037Z,48.20
2022-10-12T15:43:26.000Z,48.95
2022-10-12T15:45:56.603Z,49.41
2022-10-12T15:48:24.032Z,49.57
2022-10-12T15:50:54.150Z,49.75
2022-10-12T15:53:24.488Z,50.14
2022-10-12T15:55:53.162Z,50.66
2022-10-12T15:58:20.724Z,50.44
2022-10-12T16:00:48.447Z,50.57
2022-10-12T16:03:24.263Z,50.12
2022-10-12T16:05:53.746Z,49.89
2022-10-12T16:08:21.178Z,49.94
2022-10-12T16:10:49.036Z,49.75
2022-10-12T16:13:17.501Z,49.58
2022-10-12T16:15:45.072Z,49.85
2022-10-12T16:18:15.467Z,49.97
2022-10-12T16:20:42.866Z,49.25
2022-10-12T16:23:15.912Z,49.80
2022-10-12T16:25:46.142Z,49.40
2022-10-12T16:28:13.614Z,49.31
2022-10-12T16:30:41.995Z,49.46
2022-10-12T16:33:09.616Z,50.07
2022-10-12T16:35:39.379Z,50.51
2022-10-12T16:38:09.058Z,50.42
2022-10-12T16:40:41.062Z,50.73
2022-10-12T16:43:09.438Z,51.23
2022-10-12T16:45:37.471Z,51.10
2022-10-12T16:48:05.225Z,51.10
2022-10-12T16:50:33.172Z,51.18
2022-10-12T16:53:00.486Z,51.69
2022-10-12T16:55:27.904Z,51.81
2022-10-12T16:57:56.997Z,52.22
2022-10-12T17:00:24.348Z,52.94
2022-10-12T17:02:55.270Z,52.75
2022-10-12T17:05:24.778Z,53.43
2022-10-12T17:07:52.074Z,53.69
2022-10-12T17:10:19.589Z,54.27
2022-10-12T17:12:46.978Z,54.45
2022-10-12T17:15:14.378Z,54.90
2022-10-12T17:17:41.757Z,53.95
2022-10-12T17:20:09.682Z,53.06
2022-10-12T17:22:37.162Z,52.87
2022-10-12T17:25:04.843Z,53.39
2022-10-12T17:27:32.528Z,54.05
2022-10-12T17:29:59.954Z,54.70
2022-10-12T17:32:27.410Z,54.99
2022-10-12T17:34:54.782Z,55.82
2022-10-12T17:37:22.222Z,56.20
2022-10-12T17:39:50.412Z,56.35
2022-10-12T17:42:20.534Z,56.67
2022-10-12T17:44:47.873Z,57.46
2022-10-12T17:47:15.438Z,57.04
2022-10-12T17:49:42.992Z,58.36
2022-10-12T17:52:10.582Z,58.37
2022-10-12T17:54:37.858Z,57.67
2022-10-12T17:57:05.276Z,57.93
2022-10-12T17:59:32.695Z,58.23
2022-10-12T18:02:00.035Z,58.33
2022-10-12T18:04:27.368Z,57.77
2022-10-12T18:06:54.809Z,57.90
2022-10-12T18:09:22.162Z,58.40
2022-10-12T18:11:49.538Z,59.10
2022-10-12T18:14:16.902Z,60.19
2022-10-12T18:16:44.330Z,60.69
2022-10-12T18:19:14.596Z,60.31
2022-10-12T18:21:42.006Z,60.63
2022-10-12T18:24:16.517Z,61.59
2022-10-12T18:26:47.348Z,61.88
2022-10-12T18:29:18.000Z,62.15
2022-10-12T18:31:45.382Z,62.97
2022-10-12T18:34:12.879Z,63.89
2022-10-12T18:36:42.686Z,64.32
2022-10-12T18:39:10.152Z,64.72
2022-10-12T18:41:38.253Z,65.47
2022-10-12T18:44:05.622Z,65.54
2022-10-12T18:46:34.425Z,65.80
2022-10-12T18:49:05.148Z,65.78
2022-10-12T18:51:35.584Z,65.54
2022-10-12T18:54:06.889Z,66.67
2022-10-12T18:56:36.241Z,66.47
2022-10-12T18:59:04.456Z,66.87
2022-10-12T19:01:32.519Z,67.59
2022-10-12T19:04:01.875Z,67.13
2022-10-12T19:06:31.409Z,67.37
2022-10-12T19:08:59.807Z,67.61
2022-10-12T19:11:29.387Z,67.50
2022-10-12T19:13:58.224Z,67.55
2022-10-12T19:16:26.955Z,67.21
2022-10-12T19:18:59.979Z,67.11
2022-10-12T19:21:30.747Z,67.48
2022-10-12T19:24:01.451Z,67.71
2022-10-12T19:26:32.327Z,67.43
2022-10-12T19:29:00.031Z,68.35
2022-10-12T19:31:34.021Z,67.45
2022-10-12T19:34:05.177Z,67.43
2022-10-12T19:36:32.937Z,67.89
2022-10-12T19:39:02.910Z,67.30
2022-10-12T19:41:30.998Z,67.63
2022-10-12T19:43:59.957Z,68.19
2022-10-12T19:46:28.201Z,68.36
2022-10-12T19:48:57.451Z,69.03
2022-10-12T19:51:26.351Z,68.65
2022-10-12T19:53:55.044Z,68.86
2022-10-12T19:56:23.637Z,69.17
2022-10-12T19:58:53.756Z,69.18
2022-10-12T20:01:24.323Z,69.92
2022-10-12T20:03:52.157Z,70.14
2022-10-12T20:06:21.797Z,70.19
2022-10-12T20:08:51.594Z,70.67
2022-10-12T20:11:23.906Z,70.54
2022-10-12T20:13:52.467Z,69.86
2022-10-12T20:16:21.154Z,70.27
2022-10-12T20:18:49.685Z,70.05
2022-10-12T20:21:22.095Z,70.60
2022-10-12T20:23:50.182Z,70.27
2022-10-12T20:26:23.861Z,70.41
2022-10-12T20:28:52.565Z,70.21
2022-10-12T20:31:23.373Z,70.45
2022-10-12T20:33:55.879Z,70.44
2022-10-12T20:36:26.607Z,70.70
2022-10-12T20:38:54.135Z,70.87
2022-10-12T20:41:21.926Z,71.07
2022-10-12T20:43:49.335Z,70.94
2022-10-12T20:46:18.503Z,71.14
2022-10-12T20:48:46.286Z,71.38
2022-10-12T20:51:35.929Z,71.74
2022-10-12T20:54:05.698Z,71.57
2022-10-12T20:56:33.554Z,72.25
2022-10-12T20:59:01.452Z,72.81
2022-10-12T21:01:29.357Z,73.58
2022-10-12T21:03:57.281Z,73.76
2022-10-12T21:06:25.087Z,73.53
2022-10-12T21:08:55.072Z,73.39
2022-10-12T21:11:23.576Z,73.75
2022-10-12T21:13:51.206Z,74.32
2022-10-12T21:16:19.278Z,74.55
2022-10-12T21:18:46.839Z,74.27
2022-10-12T21:21:17.187Z,74.69
2022-10-12T21:23:55.971Z,75.00
2022-10-12T21:26:25.582Z,75.78
2022-10-12T21:28:53.727Z,75.52
2022-10-12T21:31:22.183Z,75.84
2022-10-12T21:33:49.657Z,76.14
2022-10-12T21:36:18.210Z,76.38
2022-10-12T21:38:46.981Z,76.54
2022-10-12T21:41:15.739Z,76.65
2022-10-12T21:43:43.353Z,76.45
2022-10-12T21:46:13.813Z,76.68
2022-10-12T21:48:41.495Z,76.33
2022-10-12T21:51:09.303Z,76.29
2022-10-12T21:53:38.026Z,76.09
2022-10-12T21:56:12.953Z,75.82
2022-10-12T21:58:40.480Z,75.92
2022-10-12T22:01:11.041Z,75.88
2022-10-12T22:03:38.418Z,76.44
2022-10-12T22:06:06.418Z,76.65
2022-10-12T22:08:33.788Z,76.57
2022-10-12T22:11:08.964Z,76.84
2022-10-12T22:13:36.555Z,77.74
2022-10-12T22:16:06.859Z,78.00
2022-10-12T22:18:34.982Z,77.42
2022-10-12T22:21:04.592Z,77.93
2022-10-12T22:23:32.584Z,78.20
2022-10-12T22:26:06.467Z,78.21
2022-10-12T22:28:35.475Z,78.85
2022-10-12T22:31:07.494Z,78.94
2022-10-12T22:33:35.464Z,78.96
2022-10-12T22:36:04.359Z,78.23
2022-10-12T22:38:32.767Z,78.15
2022-10-12T22:41:08.312Z,78.51
2022-10-12T22:43:42.864Z,79.14
2022-10-12T22:46:10.523Z,78.30
2022-10-12T22:48:38.288Z,78.40
2022-10-12T22:51:06.773Z,78.56
2022-10-12T22:53:35.619Z,78.10
2022-10-12T22:56:06.603Z,76.94
2022-10-12T22:58:35.172Z,77.26
2022-10-12T23:01:04.470Z,77.03
2022-10-12T23:03:33.552Z,76.45
2022-10-12T23:06:04.628Z,76.60
2022-10-12T23:08:32.398Z,77.16
2022-10-12T23:11:07.508Z,78.01
2022-10-12T23:13:37.210Z,78.20
2022-10-12T23:16:16.082Z,78.43
2022-10-12T23:18:44.100Z,79.15
2022-10-12T23:21:14.546Z,79.20
2022-10-12T23:23:43.368Z,79.36
2022-10-12T23:26:22.410Z,79.90
2022-10-12T23:28:50.742Z,79.58
2022-10-12T23:31:26.768Z,79.25
2022-10-12T23:33:57.257Z,79.74
2022-10-12T23:36:25.304Z,79.82
2022-10-12T23:38:52.623Z,79.80
2022-10-12T23:41:20.386Z,80.52
2022-10-12T23:43:47.771Z,80.54
2022-10-12T23:46:15.191Z,80.47
2022-10-12T23:48:42.434Z,80.98
2022-10-12T23:51:10.930Z,81.12
2022-10-12T23:53:39.063Z,81.39
2022-10-12T23:56:07.003Z,81.04
2022-10-12T23:58:35.143Z,80.84
